createdAt,value
2019-02-02T00:02:02.045Z,0.80
2019-02-02T00:04:34.536Z,0.80
2019-02-02T00:07:03.929Z,0.70
2019-02-02T00:09:33.569Z,0.70
2019-02-02T00:12:04.173Z,0.70
2019-02-02T00:14:37.648Z,0.70
2019-02-02T00:17:07.394Z,0.70
2019-02-02T00:19:41.122Z,0.70
2019-02-02T00:22:11.095Z,0.70
2019-02-02T00:24:41.195Z,0.70
2019-02-02T00:27:10.654Z,0.70
2019-02-02T00:29:44.627Z,0.80
2019-02-02T00:32:14.059Z,0.90
2019-02-02T00:34:43.968Z,1.10
2019-02-02T00:37:14.858Z,1.10
2019-02-02T00:39:44.224Z,1.10
2019-02-02T00:42:13.664Z,1.00
2019-02-02T00:44:43.665Z,1.10
2019-02-02T00:47:21.292Z,1.10
2019-02-02T00:49:52.460Z,1.10
2019-02-02T00:52:24.333Z,1.10
2019-02-02T00:54:53.685Z,1.10
2019-02-02T00:57:25.550Z,1.10
2019-02-02T00:59:57.091Z,1.10
2019-02-02T01:02:30.297Z,1.10
2019-02-02T01:05:04.075Z,1.20
2019-02-02T01:07:35.462Z,1.10
2019-02-02T01:10:09.397Z,1.10
2019-02-02T01:12:38.745Z,1.20
2019-02-02T01:15:09.093Z,1.20
2019-02-02T01:17:38.624Z,1.20
2019-02-02T01:20:10.262Z,1.30
2019-02-02T01:22:39.661Z,1.30
2019-02-02T01:25:14.482Z,1.30
2019-02-02T01:27:44.534Z,1.30
2019-02-02T01:30:15.093Z,1.20
2019-02-02T01:32:44.488Z,1.30
2019-02-02T01:35:16.313Z,1.30
2019-02-02T01:37:46.734Z,1.30
2019-02-02T01:40:19.960Z,1.30
2019-02-02T01:42:51.444Z,1.40
2019-02-02T01:45:24.141Z,1.40
2019-02-02T01:47:53.652Z,1.40
2019-02-02T01:50:28.936Z,1.50
2019-02-02T01:53:00.489Z,1.50
2019-02-02T01:55:30.855Z,1.40
2019-02-02T01:58:00.612Z,1.50
2019-02-02T02:00:31.633Z,1.50
2019-02-02T02:03:01.921Z,1.60
2019-02-02T02:05:31.754Z,1.60
2019-02-02T02:08:01.161Z,1.50
2019-02-02T02:10:31.887Z,1.50
2019-02-02T02:13:01.247Z,1.50
2019-02-02T02:15:31.200Z,1.50
2019-02-02T02:18:05.540Z,1.60
2019-02-02T02:20:35.609Z,1.60
2019-02-02T02:23:05.308Z,1.50
2019-02-02T02:25:34.825Z,1.50
2019-02-02T02:28:05.523Z,1.50
2019-02-02T02:30:34.926Z,1.50
2019-02-02T02:33:05.977Z,1.50
2019-02-02T02:35:35.591Z,1.50
2019-02-02T02:38:04.948Z,1.50
2019-02-02T02:40:34.949Z,1.50
2019-02-02T02:43:06.022Z,1.50
2019-02-02T02:45:35.701Z,1.50
2019-02-02T02:48:05.610Z,1.50
2019-02-02T02:50:35.087Z,1.40
2019-02-02T02:53:05.245Z,1.40
2019-02-02T02:55:34.593Z,1.30
2019-02-02T02:58:07.284Z,1.20
2019-02-02T03:00:37.054Z,1.40
2019-02-02T03:03:07.639Z,1.40
2019-02-02T03:05:40.972Z,1.40
2019-02-02T03:08:11.634Z,1.40
2019-02-02T03:10:41.917Z,1.40
2019-02-02T03:13:13.162Z,1.40
2019-02-02T03:15:42.586Z,1.50
2019-02-02T03:18:13.750Z,1.50
2019-02-02T03:20:43.281Z,1.50
2019-02-02T03:23:12.664Z,1.40
2019-02-02T03:25:42.063Z,1.50
2019-02-02T03:28:12.446Z,1.50
2019-02-02T03:30:41.908Z,1.60
2019-02-02T03:33:12.319Z,1.70
2019-02-02T03:35:43.844Z,1.70
2019-02-02T03:38:15.641Z,1.70
2019-02-02T03:40:45.020Z,1.70
2019-02-02T03:43:15.368Z,1.80
2019-02-02T03:45:45.076Z,1.80
2019-02-02T03:48:18.147Z,1.80
2019-02-02T03:50:47.956Z,1.90
2019-02-02T03:53:18.077Z,1.90
2019-02-02T03:55:47.827Z,1.80
2019-02-02T03:58:18.284Z,1.80
2019-02-02T04:00:47.681Z,1.80
2019-02-02T04:03:19.300Z,1.90
2019-02-02T04:05:51.536Z,1.90
2019-02-02T04:08:21.894Z,1.90
2019-02-02T04:10:51.313Z,1.90
2019-02-02T04:13:20.741Z,1.90
2019-02-02T04:15:53.859Z,1.90
2019-02-02T04:18:23.448Z,1.90
2019-02-02T04:20:52.947Z,1.90
2019-02-02T04:23:23.103Z,1.90
2019-02-02T04:25:52.420Z,2.00
2019-02-02T04:28:21.861Z,1.90
2019-02-02T04:30:56.001Z,2.00
2019-02-02T04:33:26.204Z,2.00
2019-02-02T04:36:15.551Z,2.00
2019-02-02T04:38:48.035Z,2.00
2019-02-02T04:41:18.389Z,2.10
2019-02-02T04:43:48.599Z,2.00
2019-02-02T04:46:18.428Z,1.90
2019-02-02T04:48:49.064Z,1.90
2019-02-02T04:51:19.232Z,1.90
2019-02-02T04:53:48.576Z,1.90
2019-02-02T04:56:18.547Z,1.80
2019-02-02T04:58:48.313Z,1.90
2019-02-02T05:01:18.433Z,1.90
2019-02-02T05:03:48.778Z,1.80
2019-02-02T05:06:24.581Z,1.80
2019-02-02T05:08:54.945Z,1.80
2019-02-02T05:11:25.282Z,1.80
2019-02-02T05:13:54.824Z,1.70
2019-02-02T05:16:26.959Z,1.70
2019-02-02T05:18:56.648Z,1.70
2019-02-02T05:21:27.884Z,1.70
2019-02-02T05:23:57.281Z,1.70
2019-02-02T05:26:33.738Z,1.80
2019-02-02T05:29:03.325Z,1.80
2019-02-02T05:31:34.484Z,1.70
2019-02-02T05:34:05.254Z,1.70
2019-02-02T05:36:36.509Z,1.70
2019-02-02T05:39:09.198Z,1.60
2019-02-02T05:41:38.560Z,1.70
2019-02-02T05:44:09.311Z,1.70
2019-02-02T05:46:39.328Z,1.70
2019-02-02T05:49:09.559Z,1.70
2019-02-02T05:51:39.696Z,1.70
2019-02-02T05:54:09.549Z,1.70
2019-02-02T05:56:40.230Z,1.70
2019-02-02T05:59:10.423Z,1.70
2019-02-02T06:01:40.655Z,1.70
2019-02-02T06:04:10.089Z,1.70
2019-02-02T06:06:39.685Z,1.70
2019-02-02T06:09:09.884Z,1.80
2019-02-02T06:11:39.416Z,1.80
2019-02-02T06:14:09.860Z,1.80
2019-02-02T06:16:39.244Z,1.80
2019-02-02T06:19:09.260Z,1.90
2019-02-02T06:21:38.773Z,1.90
2019-02-02T06:24:08.199Z,1.80
2019-02-02T06:26:37.624Z,1.90
2019-02-02T06:29:07.505Z,1.90
2019-02-02T06:31:37.536Z,1.90
2019-02-02T06:34:08.749Z,1.90
2019-02-02T06:36:40.870Z,1.90
2019-02-02T06:39:11.152Z,1.90
2019-02-02T06:41:42.094Z,1.90
2019-02-02T06:44:11.523Z,1.90
2019-02-02T06:46:43.749Z,1.90
2019-02-02T06:49:12.696Z,2.00
2019-02-02T06:51:42.580Z,2.00
2019-02-02T06:54:12.265Z,2.00
2019-02-02T06:56:42.240Z,2.00
2019-02-02T06:59:11.637Z,2.00
2019-02-02T07:01:41.133Z,2.10
2019-02-02T07:04:10.669Z,2.10
2019-02-02T07:06:40.316Z,2.10
2019-02-02T07:09:10.497Z,2.10
2019-02-02T07:11:40.158Z,2.10
2019-02-02T07:14:10.067Z,2.10
2019-02-02T07:16:40.771Z,2.20
2019-02-02T07:19:11.872Z,2.30
2019-02-02T07:21:41.346Z,2.30
2019-02-02T07:24:12.189Z,2.30
2019-02-02T07:26:42.446Z,2.40
2019-02-02T07:29:14.705Z,2.40
2019-02-02T07:31:44.721Z,2.40
2019-02-02T07:34:15.113Z,2.40
2019-02-02T07:36:45.708Z,2.40
2019-02-02T07:39:20.576Z,2.40
2019-02-02T07:41:50.375Z,2.40
2019-02-02T07:44:21.266Z,2.50
2019-02-02T07:46:51.811Z,2.50
2019-02-02T07:49:21.436Z,2.60
2019-02-02T07:51:50.921Z,2.60
2019-02-02T07:54:20.891Z,2.60
2019-02-02T07:56:53.553Z,2.70
2019-02-02T07:59:24.961Z,2.70
2019-02-02T08:01:55.362Z,2.70
2019-02-02T08:04:28.723Z,2.80
2019-02-02T08:06:58.084Z,2.90
2019-02-02T08:09:29.722Z,2.90
2019-02-02T08:11:59.421Z,2.80
2019-02-02T08:14:29.718Z,2.90
2019-02-02T08:16:59.181Z,2.90
2019-02-02T08:19:34.666Z,2.90
2019-02-02T08:22:04.652Z,2.90
2019-02-02T08:24:38.566Z,2.90
2019-02-02T08:27:07.066Z,2.90
2019-02-02T08:29:36.897Z,2.90
2019-02-02T08:32:07.111Z,3.00
2019-02-02T08:34:36.421Z,3.00
2019-02-02T08:37:05.978Z,3.00
2019-02-02T08:39:38.690Z,2.90
2019-02-02T08:42:09.875Z,3.00
2019-02-02T08:44:39.859Z,2.90
2019-02-02T08:47:09.921Z,2.90
2019-02-02T08:49:40.490Z,2.90
2019-02-02T08:52:10.535Z,2.80
2019-02-02T08:54:40.429Z,2.80
2019-02-02T08:57:10.309Z,2.80
2019-02-02T08:59:40.728Z,2.80
2019-02-02T09:02:11.020Z,2.80
2019-02-02T09:04:40.511Z,2.90
2019-02-02T09:07:11.104Z,2.90
2019-02-02T09:09:41.186Z,3.00
2019-02-02T09:12:10.535Z,3.10
2019-02-02T09:14:39.956Z,3.20
2019-02-02T09:17:10.200Z,3.30
2019-02-02T09:19:40.084Z,3.40
2019-02-02T09:22:12.233Z,3.50
2019-02-02T09:24:41.949Z,3.60
2019-02-02T09:27:11.430Z,3.70
2019-02-02T09:29:42.328Z,3.70
2019-02-02T09:32:11.937Z,3.80
2019-02-02T09:34:42.266Z,3.90
2019-02-02T09:37:12.791Z,4.00
2019-02-02T09:39:42.172Z,4.10
2019-02-02T09:42:12.276Z,4.10
2019-02-02T09:44:42.284Z,4.00
2019-02-02T09:47:13.358Z,4.00
2019-02-02T09:49:43.433Z,3.90
2019-02-02T09:52:12.905Z,3.80
2019-02-02T09:54:42.274Z,3.90
2019-02-02T09:57:12.111Z,3.80
2019-02-02T09:59:41.644Z,3.80
2019-02-02T10:02:11.482Z,3.80
2019-02-02T10:04:41.672Z,3.80
2019-02-02T10:07:12.736Z,3.80
2019-02-02T10:09:42.056Z,3.90
2019-02-02T10:12:12.651Z,3.80
2019-02-02T10:14:42.759Z,3.80
2019-02-02T10:17:12.125Z,3.80
2019-02-02T10:19:42.181Z,3.80
2019-02-02T10:22:12.182Z,3.90
2019-02-02T10:24:41.965Z,4.00
2019-02-02T10:27:11.353Z,4.00
2019-02-02T10:29:41.125Z,4.10
2019-02-02T10:32:10.722Z,4.20
2019-02-02T10:34:47.397Z,4.40
2019-02-02T10:37:18.065Z,4.50
2019-02-02T10:39:47.509Z,4.60
2019-02-02T10:42:18.979Z,4.70
2019-02-02T10:44:49.191Z,4.70
2019-02-02T10:47:19.141Z,4.70
2019-02-02T10:49:48.490Z,4.80
2019-02-02T10:52:18.181Z,5.00
2019-02-02T10:54:48.860Z,5.20
2019-02-02T10:57:18.693Z,5.30
2019-02-02T10:59:49.052Z,5.50
2019-02-02T11:02:18.910Z,5.40
2019-02-02T11:04:53.442Z,5.20
2019-02-02T11:07:21.253Z,5.20
2019-02-02T11:09:50.584Z,5.10
2019-02-02T11:12:20.568Z,5.10
2019-02-02T11:14:50.713Z,5.20
2019-02-02T11:17:21.624Z,5.30
2019-02-02T11:19:51.693Z,5.50
2019-02-02T11:22:22.873Z,5.60
2019-02-02T11:24:52.423Z,5.70
2019-02-02T11:27:22.580Z,5.70
2019-02-02T11:29:52.594Z,5.80
2019-02-02T11:32:23.025Z,5.80
2019-02-02T11:34:53.520Z,5.60
2019-02-02T11:37:24.432Z,5.40
2019-02-02T11:39:55.068Z,5.20
2019-02-02T11:42:24.941Z,5.20
2019-02-02T11:44:59.069Z,5.20
2019-02-02T11:47:29.468Z,5.30
2019-02-02T11:49:58.843Z,5.30
2019-02-02T11:52:28.416Z,5.40
2019-02-02T11:54:58.285Z,5.50
2019-02-02T11:57:34.086Z,5.40
2019-02-02T12:00:05.578Z,5.30
2019-02-02T12:02:35.229Z,5.30
2019-02-02T12:05:05.738Z,5.40
2019-02-02T12:07:35.494Z,5.50
2019-02-02T12:10:10.038Z,5.60
2019-02-02T12:12:42.103Z,5.80
2019-02-02T12:15:14.981Z,5.90
2019-02-02T12:17:44.343Z,6.10
2019-02-02T12:20:16.122Z,6.20
2019-02-02T12:22:45.824Z,6.40
2019-02-02T12:25:16.904Z,6.50
2019-02-02T12:27:48.029Z,6.50
2019-02-02T12:30:20.746Z,6.60
2019-02-02T12:32:50.126Z,6.70
2019-02-02T12:35:21.612Z,6.70
2019-02-02T12:47:34.800Z,6.50
2019-02-02T12:50:05.124Z,6.50
2019-02-02T12:52:34.525Z,6.50
2019-02-02T12:55:06.309Z,6.60
2019-02-02T12:57:35.704Z,6.80
2019-02-02T13:00:07.122Z,6.80
2019-02-02T13:02:38.506Z,6.80
2019-02-02T13:05:09.041Z,6.80
2019-02-02T13:07:40.692Z,6.80
2019-02-02T13:10:15.029Z,6.80
2019-02-02T13:12:44.764Z,6.90
2019-02-02T13:15:17.902Z,7.00
2019-02-02T13:17:47.856Z,7.00
2019-02-02T13:20:18.113Z,7.00
2019-02-02T13:22:47.732Z,7.00
2019-02-02T13:25:19.770Z,6.90
2019-02-02T13:27:49.140Z,7.00
2019-02-02T13:30:24.487Z,7.00
2019-02-02T13:32:54.735Z,6.90
2019-02-02T13:35:24.460Z,6.90
2019-02-02T13:37:54.599Z,6.80
2019-02-02T13:40:24.744Z,6.80
2019-02-02T13:42:54.490Z,6.80
2019-02-02T13:45:24.193Z,6.90
2019-02-02T13:47:54.221Z,7.00
2019-02-02T13:50:23.809Z,7.00
2019-02-02T13:52:57.099Z,7.00
2019-02-02T13:55:27.894Z,6.90
2019-02-02T13:57:57.832Z,6.90
2019-02-02T14:00:29.992Z,7.00
2019-02-02T14:03:03.242Z,7.00
2019-02-02T14:05:30.833Z,7.10
2019-02-02T14:08:00.462Z,6.90
2019-02-02T14:10:31.237Z,7.10
2019-02-02T14:13:00.721Z,7.20
2019-02-02T14:15:30.104Z,7.30
2019-02-02T14:18:01.270Z,7.30
2019-02-02T14:20:31.179Z,7.40
2019-02-02T14:23:01.782Z,7.40
2019-02-02T14:25:31.396Z,7.40
2019-02-02T14:28:00.797Z,7.30
2019-02-02T14:30:30.169Z,7.30
2019-02-02T14:33:00.168Z,7.30
2019-02-02T14:35:36.829Z,7.20
2019-02-02T14:38:06.713Z,7.20
2019-02-02T14:40:36.577Z,7.20
2019-02-02T14:43:06.317Z,7.10
2019-02-02T14:45:35.708Z,7.10
2019-02-02T14:48:06.328Z,7.00
2019-02-02T14:50:36.091Z,7.00
2019-02-02T14:53:07.280Z,6.90
2019-02-02T14:55:38.465Z,6.90
2019-02-02T14:58:08.275Z,6.90
2019-02-02T15:00:37.682Z,6.90
2019-02-02T15:03:07.607Z,6.80
2019-02-02T15:05:43.016Z,6.70
2019-02-02T15:08:08.573Z,6.60
2019-02-02T15:10:38.534Z,6.50
2019-02-02T15:13:07.867Z,6.50
2019-02-02T15:15:37.249Z,6.50
2019-02-02T15:18:06.867Z,6.40
2019-02-02T15:20:41.245Z,6.40
2019-02-02T15:23:10.703Z,6.50
2019-02-02T15:25:40.717Z,6.40
2019-02-02T15:28:11.127Z,6.20
2019-02-02T15:30:46.415Z,6.10
2019-02-02T15:33:21.621Z,6.00
2019-02-02T15:35:51.306Z,6.00
2019-02-02T15:38:21.936Z,5.90
2019-02-02T15:40:58.846Z,5.90
2019-02-02T15:43:26.066Z,5.80
2019-02-02T15:45:55.544Z,5.80
2019-02-02T15:48:26.477Z,5.60
2019-02-02T15:50:56.481Z,5.50
2019-02-02T15:53:26.199Z,5.40
2019-02-02T15:55:55.769Z,5.30
2019-02-02T15:58:27.880Z,5.20
2019-02-02T16:00:57.264Z,5.10
2019-02-02T16:03:28.140Z,5.00
2019-02-02T16:06:01.987Z,4.90
2019-02-02T16:08:32.378Z,4.80
2019-02-02T16:11:04.971Z,4.60
2019-02-02T16:13:37.726Z,4.60
2019-02-02T16:16:08.189Z,4.50
2019-02-02T16:18:38.860Z,4.40
2019-02-02T16:21:08.425Z,4.20
2019-02-02T16:23:38.346Z,4.10
2019-02-02T16:26:08.305Z,4.10
2019-02-02T16:28:38.098Z,4.00
2019-02-02T16:31:10.026Z,3.90
2019-02-02T16:33:39.493Z,3.80
2019-02-02T16:36:10.027Z,3.80
2019-02-02T16:38:39.989Z,3.90
2019-02-02T16:41:10.977Z,3.90
2019-02-02T16:43:40.312Z,4.00
2019-02-02T16:46:12.571Z,4.00
2019-02-02T16:48:43.829Z,3.90
2019-02-02T16:51:13.201Z,3.90
2019-02-02T16:53:42.624Z,3.90
2019-02-02T16:56:15.145Z,4.00
2019-02-02T16:58:45.118Z,4.00
2019-02-02T17:01:14.899Z,4.00
2019-02-02T17:03:45.214Z,4.00
2019-02-02T17:06:16.130Z,3.90
2019-02-02T17:08:45.513Z,4.00
2019-02-02T17:11:16.823Z,4.00
2019-02-02T17:13:46.196Z,4.00
2019-02-02T17:16:16.211Z,4.00
2019-02-02T17:18:46.443Z,4.00
2019-02-02T17:21:18.316Z,4.10
2019-02-02T17:23:47.939Z,4.00
2019-02-02T17:26:19.671Z,4.10
2019-02-02T17:28:49.591Z,4.10
2019-02-02T17:31:20.101Z,4.10
2019-02-02T17:33:49.548Z,4.10
2019-02-02T17:36:19.862Z,4.10
2019-02-02T17:38:49.536Z,4.20
2019-02-02T17:41:18.945Z,4.20
2019-02-02T17:43:49.124Z,4.20
2019-02-02T17:46:18.519Z,4.10
2019-02-02T17:48:48.696Z,4.10
2019-02-02T17:51:19.054Z,4.20
2019-02-02T17:53:48.465Z,4.10
2019-02-02T17:56:21.755Z,4.00
2019-02-02T17:58:53.902Z,3.90
2019-02-02T18:01:25.889Z,3.80
2019-02-02T18:03:56.318Z,3.70
2019-02-02T18:06:26.667Z,3.70
2019-02-02T18:08:56.689Z,3.60
2019-02-02T18:11:28.396Z,3.50
2019-02-02T18:13:57.889Z,3.50
2019-02-02T18:16:27.286Z,3.50
2019-02-02T18:18:58.263Z,3.50
2019-02-02T18:21:28.377Z,3.40
2019-02-02T18:23:58.815Z,3.40
2019-02-02T18:26:31.395Z,3.50
2019-02-02T18:29:00.857Z,3.50
2019-02-02T18:31:34.537Z,3.50
2019-02-02T18:34:05.297Z,3.50
2019-02-02T18:36:35.625Z,3.40
2019-02-02T18:39:08.515Z,3.40
2019-02-02T18:41:38.246Z,3.40
2019-02-02T18:44:07.811Z,3.40
2019-02-02T18:46:38.183Z,3.40
2019-02-02T18:49:09.419Z,3.50
2019-02-02T18:51:39.582Z,3.50
2019-02-02T18:54:09.652Z,3.50
2019-02-02T18:56:39.212Z,3.50
2019-02-02T18:59:13.235Z,3.50
2019-02-02T19:01:42.592Z,3.50
2019-02-02T19:04:12.365Z,3.60
2019-02-02T19:06:42.069Z,3.60
2019-02-02T19:09:11.548Z,3.50
2019-02-02T19:11:42.144Z,3.50
2019-02-02T19:14:12.058Z,3.50
2019-02-02T19:16:41.808Z,3.60
2019-02-02T19:19:11.297Z,3.50
2019-02-02T19:21:41.113Z,3.60
2019-02-02T19:24:10.514Z,3.60
2019-02-02T19:26:41.909Z,3.60
2019-02-02T19:29:14.887Z,3.60
2019-02-02T19:31:44.276Z,3.60
2019-02-02T19:34:14.149Z,3.60
2019-02-02T19:36:43.780Z,3.60
2019-02-02T19:39:13.780Z,3.60
2019-02-02T19:41:44.381Z,3.70
2019-02-02T19:44:13.765Z,3.60
2019-02-02T19:46:43.845Z,3.50
2019-02-02T19:49:14.037Z,3.40
2019-02-02T19:51:43.424Z,3.30
2019-02-02T19:54:13.140Z,3.20
2019-02-02T19:56:44.508Z,3.10
2019-02-02T19:59:13.605Z,3.10
2019-02-02T20:01:43.288Z,3.00
2019-02-02T20:04:13.113Z,3.00
2019-02-02T20:06:42.509Z,3.00
2019-02-02T20:09:12.196Z,2.90
2019-02-02T20:11:41.616Z,2.90
2019-02-02T20:14:11.095Z,2.90
2019-02-02T20:16:40.488Z,2.80
2019-02-02T20:19:09.908Z,2.80
2019-02-02T20:21:39.861Z,2.70
2019-02-02T20:24:09.216Z,2.70
2019-02-02T20:26:40.095Z,2.80
2019-02-02T20:29:09.980Z,2.80
2019-02-02T20:31:39.362Z,2.80
2019-02-02T20:34:10.429Z,2.90
2019-02-02T20:36:39.912Z,2.80
2019-02-02T20:39:09.744Z,2.80
2019-02-02T20:41:39.171Z,2.80
2019-02-02T20:44:09.040Z,2.70
2019-02-02T20:46:38.445Z,2.80
2019-02-02T20:49:08.312Z,2.80
2019-02-02T20:51:37.653Z,2.80
2019-02-02T20:54:07.410Z,2.80
2019-02-02T20:56:37.887Z,2.90
2019-02-02T20:59:09.913Z,3.00
2019-02-02T21:01:39.344Z,3.00
2019-02-02T21:04:09.584Z,2.90
2019-02-02T21:06:42.595Z,2.90
2019-02-02T21:09:12.381Z,3.00
2019-02-02T21:11:41.825Z,3.00
2019-02-02T21:14:11.224Z,3.00
2019-02-02T21:16:40.638Z,2.90
2019-02-02T21:19:10.809Z,2.90
2019-02-02T21:21:40.701Z,3.00
2019-02-02T21:24:10.772Z,2.90
2019-02-02T21:26:40.744Z,3.00
2019-02-02T21:29:11.073Z,2.90
2019-02-02T21:31:40.534Z,2.90
2019-02-02T21:34:09.969Z,2.80
2019-02-02T21:36:39.517Z,2.80
2019-02-02T21:39:11.054Z,2.90
2019-02-02T21:41:41.547Z,2.80
2019-02-02T21:44:11.472Z,2.70
2019-02-02T21:46:40.876Z,2.70
2019-02-02T21:49:10.309Z,2.60
2019-02-02T21:51:39.837Z,2.60
2019-02-02T21:54:11.240Z,2.60
2019-02-02T21:56:41.097Z,2.60
2019-02-02T21:59:10.481Z,2.60
2019-02-02T22:01:39.869Z,2.70
2019-02-02T22:04:10.405Z,2.70
2019-02-02T22:06:39.944Z,2.60
2019-02-02T22:09:10.073Z,2.70
2019-02-02T22:11:39.504Z,2.60
2019-02-02T22:14:11.145Z,2.60
2019-02-02T22:16:40.622Z,2.60
2019-02-02T22:19:12.756Z,2.70
2019-02-02T22:21:42.709Z,2.70
2019-02-02T22:24:12.067Z,2.70
2019-02-02T22:26:42.215Z,2.70
2019-02-02T22:29:11.533Z,2.70
2019-02-02T22:31:41.774Z,2.60
2019-02-02T22:34:11.293Z,2.60
2019-02-02T22:36:42.261Z,2.60
2019-02-02T22:39:12.071Z,2.60
2019-02-02T22:41:42.044Z,2.50
2019-02-02T22:44:11.975Z,2.50
2019-02-02T22:46:41.427Z,2.40
2019-02-02T22:49:11.150Z,2.40
2019-02-02T22:51:41.220Z,2.40
2019-02-02T22:54:10.603Z,2.50
2019-02-02T22:56:40.267Z,2.50
2019-02-02T22:59:09.863Z,2.40
2019-02-02T23:01:42.304Z,2.50
2019-02-02T23:04:53.388Z,2.50
2019-02-02T23:07:55.912Z,2.50
2019-02-02T23:11:13.647Z,2.50
2019-02-02T23:14:17.231Z,2.50
2019-02-02T23:16:47.092Z,2.40
2019-02-02T23:19:17.177Z,2.30
2019-02-02T23:21:46.625Z,2.30
2019-02-02T23:24:17.631Z,2.40
2019-02-02T23:26:47.101Z,2.40
2019-02-02T23:29:18.393Z,2.30
2019-02-02T23:31:47.968Z,2.30
2019-02-02T23:34:18.095Z,2.40
2019-02-02T23:36:51.397Z,2.30
2019-02-02T23:39:19.973Z,2.30
2019-02-02T23:41:49.366Z,2.30
2019-02-02T23:44:19.020Z,2.20
2019-02-02T23:46:48.608Z,2.20
2019-02-02T23:49:18.093Z,2.30
2019-02-02T23:51:47.548Z,2.20
2019-02-02T23:54:17.226Z,2.30
2019-02-02T23:56:46.708Z,2.30
2019-02-02T23:59:17.133Z,2.30
